Аэропорт: Сокол. Магадан

ICAO: UHMM

METAR:
2018/09/19 07:30
UHMM 190730Z 34002MPS 300V030 9999 -SHRA FEW040CB 14/08 Q0996 R10/290350 NOSIG RMK QFE732
METAR:
2018/09/19 06:22
TAF UHMM 190444Z 1906/2012 03003G09MPS 9999 -SHRA BKN030CB OVC070 
      TEMPO 1906/1912 3100 -SHRA BR SCT011 OVC020CB 
      TEMPO 1912/2012 10003MPS 5000 -SHRA BR OVC025CB